Time;durP1;ratioP1;P1;durP2;ratioP2;P2;SDS_P1;SDS_P2;PMS_P1;PMS_P2;Temp;Humidity;BMP_temperature;BMP_pressure;BME280_temperature;BME280_humidity;BME280_pressure;Samples;Min_cycle;Max_cycle;Signal;HPM_P1;HPM_P2
2023/07/10 00:01:28;;;;;;;8.80;7.57;;;28.70;90.40;;;;;;5015620;28;20930;-67
2023/07/10 00:03:54;;;;;;;8.43;7.30;;;28.80;90.40;;;;;;5016571;28;20514;-67
2023/07/10 00:06:20;;;;;;;8.60;7.70;;;28.80;90.40;;;;;;5017939;28;20513;-67
2023/07/10 00:08:46;;;;;;;8.93;7.00;;;28.70;89.70;;;;;;5018561;28;20474;-67
2023/07/10 00:11:17;;;;;;;13.40;7.70;;;28.60;90.10;;;;;;5020253;28;20447;-67
2023/07/10 00:13:44;;;;;;;7.90;7.07;;;28.60;89.80;;;;;;5021803;28;20211;-67
2023/07/10 00:16:16;;;;;;;6.83;6.20;;;28.60;89.60;;;;;;5019511;28;20465;-67
2023/07/10 00:18:42;;;;;;;9.13;7.80;;;28.50;89.90;;;;;;5017602;28;20451;-67
2023/07/10 00:21:08;;;;;;;8.30;7.30;;;28.30;90.20;;;;;;5018644;28;20796;-67
2023/07/10 00:23:34;;;;;;;10.70;7.10;;;28.20;90.40;;;;;;5021327;28;20192;-67
2023/07/10 00:25:59;;;;;;;7.90;7.10;;;28.10;90.50;;;;;;5017216;28;20506;-67
2023/07/10 00:28:25;;;;;;;7.80;7.10;;;28.00;90.40;;;;;;5015921;28;20247;-67
2023/07/10 00:30:51;;;;;;;7.57;6.80;;;28.00;90.70;;;;;;5019264;28;20188;-67
2023/07/10 00:33:19;;;;;;;7.30;6.70;;;28.00;90.90;;;;;;5020033;28;20242;-67
2023/07/10 00:35:45;;;;;;;7.93;6.80;;;28.00;91.10;;;;;;5018520;28;20451;-67
2023/07/10 00:38:26;;;;;;;9.47;8.00;;;27.90;90.60;;;;;;5019862;28;21189;-67
2023/07/10 00:40:52;;;;;;;9.30;7.60;;;27.90;90.90;;;;;;5016834;28;20435;-67
2023/07/10 00:43:42;;;;;;;9.93;6.90;;;27.90;90.80;;;;;;5018255;28;20439;-67
2023/07/10 00:46:24;;;;;;;8.23;7.53;;;27.90;90.60;;;;;;5016867;28;20271;-67
2023/07/10 00:49:00;;;;;;;12.97;7.53;;;27.90;90.50;;;;;;5018295;28;20566;-67
2023/07/10 00:51:33;;;;;;;7.90;7.10;;;27.90;90.30;;;;;;5019339;28;20518;-67
2023/07/10 00:54:01;;;;;;;8.23;7.40;;;28.00;90.30;;;;;;5017871;28;20434;-67
2023/07/10 00:56:35;;;;;;;9.20;6.63;;;27.90;90.10;;;;;;5018866;28;20983;-67
2023/07/10 00:59:24;;;;;;;11.97;8.50;;;27.90;90.30;;;;;;5014248;28;20467;-67
2023/07/10 01:02:08;;;;;;;9.30;7.73;;;27.80;90.10;;;;;;5018927;28;20437;-67
2023/07/10 01:04:34;;;;;;;8.00;6.90;;;27.80;90.10;;;;;;5018977;28;22054;-67
2023/07/10 01:07:00;;;;;;;8.23;7.43;;;27.90;90.00;;;;;;5019297;28;20505;-67
2023/07/10 01:09:27;;;;;;;7.67;6.73;;;28.00;89.80;;;;;;5019225;28;20470;-67
2023/07/10 01:11:53;;;;;;;8.00;7.20;;;27.90;90.10;;;;;;5015816;28;20499;-67
2023/07/10 01:14:20;;;;;;;8.10;7.27;;;27.80;90.40;;;;;;5013630;28;20872;-67
2023/07/10 01:16:47;;;;;;;9.33;7.53;;;27.70;90.50;;;;;;5015778;28;20185;-67
2023/07/10 01:19:18;;;;;;;8.23;6.90;;;27.70;90.50;;;;;;5021371;28;21044;-67
2023/07/10 01:21:44;;;;;;;9.60;7.47;;;27.60;90.50;;;;;;5016507;28;20791;-67
2023/07/10 01:24:10;;;;;;;8.77;6.97;;;27.50;90.50;;;;;;5022816;28;20427;-67
2023/07/10 01:26:38;;;;;;;9.73;6.53;;;27.50;90.50;;;;;;5016645;28;20202;-67
2023/07/10 01:29:11;;;;;;;8.20;6.83;;;27.50;90.50;;;;;;5020556;28;20306;-67
2023/07/10 01:31:38;;;;;;;9.80;7.43;;;27.50;90.50;;;;;;5017501;28;20824;-67
2023/07/10 01:34:05;;;;;;;8.20;6.97;;;27.50;90.60;;;;;;5024514;28;20712;-67
2023/07/10 01:36:35;;;;;;;7.37;6.43;;;27.40;90.60;;;;;;5019773;28;20511;-67
2023/07/10 01:39:09;;;;;;;7.33;6.63;;;27.50;90.50;;;;;;5020506;28;20956;-67
2023/07/10 01:41:41;;;;;;;9.10;7.03;;;27.40;90.70;;;;;;5022157;28;20448;-67
2023/07/10 01:44:28;;;;;;;8.27;7.07;;;27.30;91.00;;;;;;5019342;28;20465;-67
2023/07/10 01:46:55;;;;;;;10.00;7.17;;;27.30;91.10;;;;;;5017265;28;21002;-67
2023/07/10 01:49:27;;;;;;;9.17;7.20;;;27.30;91.10;;;;;;5023117;28;20527;-67
2023/07/10 01:51:55;;;;;;;8.70;7.23;;;27.30;91.20;;;;;;5019032;28;20462;-67
2023/07/10 01:54:20;;;;;;;8.40;7.50;;;27.20;91.50;;;;;;5022253;28;20508;-67
2023/07/10 01:56:47;;;;;;;10.90;7.50;;;27.20;91.50;;;;;;5021797;28;21099;-67
2023/07/10 01:59:13;;;;;;;8.30;7.00;;;27.10;91.60;;;;;;5025441;28;20197;-67
2023/07/10 02:01:38;;;;;;;8.07;7.27;;;27.10;91.50;;;;;;5022510;28;20439;-67
2023/07/10 02:04:04;;;;;;;8.23;7.00;;;27.10;91.40;;;;;;5023885;28;20439;-67
2023/07/10 02:06:33;;;;;;;7.70;6.97;;;27.00;91.30;;;;;;5015822;28;20200;-67
2023/07/10 02:08:58;;;;;;;9.43;7.57;;;27.20;91.20;;;;;;5020937;28;20217;-68
2023/07/10 02:11:24;;;;;;;7.60;6.80;;;27.10;91.10;;;;;;5020657;28;20542;-68
2023/07/10 02:13:50;;;;;;;8.50;7.67;;;27.10;91.20;;;;;;5024025;28;20265;-67
2023/07/10 02:16:16;;;;;;;9.20;7.60;;;27.00;91.10;;;;;;5019292;28;20212;-67
2023/07/10 02:18:41;;;;;;;8.53;6.87;;;27.00;90.90;;;;;;5023017;28;20217;-67
2023/07/10 02:21:08;;;;;;;8.93;7.20;;;27.10;91.00;;;;;;5020941;28;20475;-67
2023/07/10 02:23:36;;;;;;;7.60;6.80;;;26.90;91.20;;;;;;5019370;28;20203;-67
2023/07/10 02:26:02;;;;;;;8.93;7.20;;;26.90;91.30;;;;;;5020440;28;20441;-67
2023/07/10 02:28:28;;;;;;;10.00;7.10;;;26.90;91.80;;;;;;5020556;28;20471;-67
2023/07/10 02:30:53;;;;;;;10.40;7.60;;;26.80;91.60;;;;;;5018587;28;20995;-67
2023/07/10 02:33:20;;;;;;;8.13;7.20;;;26.80;91.60;;;;;;5019892;28;20255;-67
2023/07/10 02:35:46;;;;;;;7.83;6.90;;;26.60;92.00;;;;;;5021159;28;20273;-67
2023/07/10 02:38:12;;;;;;;7.30;6.60;;;26.50;92.20;;;;;;5023017;28;20836;-67
2023/07/10 02:40:37;;;;;;;10.43;8.10;;;26.60;92.40;;;;;;5016736;28;20438;-68
2023/07/10 02:43:03;;;;;;;8.07;6.97;;;26.60;92.50;;;;;;5021308;28;20677;-67
2023/07/10 02:45:29;;;;;;;8.30;7.50;;;26.60;92.60;;;;;;5019204;28;20261;-67
2023/07/10 02:47:54;;;;;;;9.80;8.33;;;26.50;92.80;;;;;;5023621;28;20185;-67
2023/07/10 02:50:20;;;;;;;7.87;6.63;;;26.50;92.90;;;;;;5020839;28;20247;-67
2023/07/10 02:52:45;;;;;;;9.13;8.07;;;26.50;92.90;;;;;;5021582;28;20730;-67
2023/07/10 02:55:11;;;;;;;8.70;6.53;;;26.40;93.20;;;;;;5019976;28;20212;-67
2023/07/10 02:57:36;;;;;;;9.40;7.40;;;26.40;93.40;;;;;;5019415;28;20203;-67
2023/07/10 03:00:04;;;;;;;7.40;6.70;;;26.50;93.30;;;;;;5018828;28;20670;-67
2023/07/10 03:02:30;;;;;;;9.43;7.33;;;26.50;93.30;;;;;;5024446;28;20179;-67
2023/07/10 03:04:56;;;;;;;7.60;6.73;;;26.70;93.30;;;;;;5020383;28;20431;-67
2023/07/10 03:07:21;;;;;;;9.70;7.50;;;26.70;93.10;;;;;;5019409;28;20592;-67
2023/07/10 03:09:48;;;;;;;9.00;7.20;;;26.50;93.50;;;;;;5021489;28;20266;-67
2023/07/10 03:12:13;;;;;;;9.37;7.37;;;26.50;93.80;;;;;;5019692;28;20673;-67
2023/07/10 03:14:39;;;;;;;8.03;7.30;;;26.40;94.00;;;;;;5028241;28;20436;-67
2023/07/10 03:17:04;;;;;;;8.17;6.40;;;26.30;94.40;;;;;;5021536;28;20205;-67
2023/07/10 03:19:31;;;;;;;7.50;6.57;;;26.20;94.70;;;;;;5019755;28;20227;-67
2023/07/10 03:21:57;;;;;;;10.70;7.53;;;26.20;95.20;;;;;;5020777;28;20188;-67
2023/07/10 03:24:23;;;;;;;8.07;7.27;;;26.30;95.50;;;;;;5020300;28;20528;-67
2023/07/10 03:26:48;;;;;;;9.50;7.13;;;26.20;95.90;;;;;;5019113;28;20202;-67
2023/07/10 03:29:16;;;;;;;6.87;6.27;;;26.20;96.50;;;;;;5017011;28;20733;-67
2023/07/10 03:31:42;;;;;;;9.20;6.83;;;26.10;97.10;;;;;;5019245;28;20781;-67
2023/07/10 03:34:11;;;;;;;9.13;7.63;;;26.10;97.60;;;;;;5024705;28;20526;-67
2023/07/10 03:36:37;;;;;;;11.27;7.60;;;26.10;98.00;;;;;;5015847;28;20440;-67
2023/07/10 03:39:03;;;;;;;7.20;6.40;;;26.10;98.40;;;;;;5020559;28;21009;-67
2023/07/10 03:41:29;;;;;;;9.33;7.30;;;25.90;99.30;;;;;;5020309;28;20184;-67
2023/07/10 03:43:55;;;;;;;7.30;6.53;;;25.80;99.90;;;;;;5019313;28;20454;-67
2023/07/10 03:46:21;;;;;;;8.60;7.40;;;25.90;99.90;;;;;;5018638;28;20179;-67
2023/07/10 03:48:47;;;;;;;8.67;6.93;;;25.90;99.90;;;;;;5020915;28;20697;-67
2023/07/10 03:51:14;;;;;;;11.67;7.97;;;26.00;99.90;;;;;;5019848;28;20589;-67
2023/07/10 03:53:40;;;;;;;9.50;7.97;;;25.90;99.90;;;;;;5019123;28;20493;-67
2023/07/10 03:56:06;;;;;;;8.53;7.03;;;25.90;99.90;;;;;;5017866;28;20477;-67
2023/07/10 03:58:33;;;;;;;14.33;8.30;;;25.90;99.90;;;;;;5016323;28;20251;-67
2023/07/10 04:01:00;;;;;;;8.10;7.20;;;25.90;99.90;;;;;;5020026;28;20192;-67
2023/07/10 04:03:30;;;;;;;8.43;7.07;;;25.80;99.90;;;;;;5019791;28;20542;-67
2023/07/10 04:05:58;;;;;;;8.90;6.60;;;25.60;99.90;;;;;;5017835;28;20436;-67
2023/07/10 04:08:31;;;;;;;8.80;6.73;;;25.70;99.90;;;;;;5019562;28;20518;-68
2023/07/10 04:11:00;;;;;;;9.07;6.83;;;25.80;99.90;;;;;;5017858;28;20431;-68
2023/07/10 04:13:26;;;;;;;8.37;6.67;;;25.90;99.90;;;;;;5017956;28;20527;-68
2023/07/10 04:15:59;;;;;;;8.80;7.37;;;26.00;99.90;;;;;;5013666;28;20614;-67
2023/07/10 04:18:31;;;;;;;9.03;7.90;;;26.00;99.90;;;;;;5021667;28;20980;-67
2023/07/10 04:20:57;;;;;;;7.03;6.33;;;26.00;99.90;;;;;;5017118;28;20440;-67
2023/07/10 04:23:23;;;;;;;10.40;7.53;;;26.00;99.90;;;;;;5021448;28;20492;-67
2023/07/10 04:25:49;;;;;;;8.53;6.90;;;25.90;99.90;;;;;;5015980;28;20447;-67
2023/07/10 04:28:15;;;;;;;8.10;6.70;;;25.90;99.90;;;;;;5018244;28;20928;-67
2023/07/10 04:30:40;;;;;;;7.70;7.00;;;26.00;99.90;;;;;;5016887;28;20275;-66
2023/07/10 04:33:09;;;;;;;8.80;7.60;;;26.10;99.90;;;;;;5019232;28;20199;-66
2023/07/10 04:35:35;;;;;;;8.60;7.30;;;26.10;99.90;;;;;;5019395;28;20181;-67
2023/07/10 04:38:00;;;;;;;11.27;7.00;;;26.00;99.90;;;;;;5020341;28;20439;-66
2023/07/10 04:40:26;;;;;;;8.80;7.27;;;26.00;99.90;;;;;;5018240;28;20196;-67
2023/07/10 04:42:53;;;;;;;8.67;7.63;;;25.90;99.90;;;;;;5014622;28;20243;-67
2023/07/10 04:45:18;;;;;;;9.13;6.90;;;26.00;99.90;;;;;;5017928;28;20515;-67
2023/07/10 04:47:44;;;;;;;8.37;6.70;;;25.80;99.90;;;;;;5017971;28;20435;-67
2023/07/10 04:50:10;;;;;;;8.03;7.13;;;25.90;99.90;;;;;;5019580;28;20208;-67
2023/07/10 04:52:35;;;;;;;10.13;7.53;;;26.00;99.90;;;;;;5020160;28;20731;-67
2023/07/10 04:55:02;;;;;;;8.50;7.30;;;26.00;99.90;;;;;;5018353;28;20612;-67
2023/07/10 04:57:28;;;;;;;9.30;7.23;;;26.10;99.90;;;;;;5017403;28;20661;-66
2023/07/10 04:59:54;;;;;;;9.53;8.10;;;26.00;99.90;;;;;;5022737;28;20458;-66
2023/07/10 05:02:19;;;;;;;10.00;8.20;;;26.00;99.90;;;;;;5024845;28;20708;-66
2023/07/10 05:04:45;;;;;;;13.40;7.97;;;26.00;99.90;;;;;;5026665;28;20195;-66
2023/07/10 05:07:10;;;;;;;8.67;7.20;;;26.10;99.90;;;;;;5026679;28;20203;-66
2023/07/10 05:09:36;;;;;;;10.90;7.00;;;26.00;99.90;;;;;;5021299;28;20223;-67
2023/07/10 05:12:02;;;;;;;9.67;6.30;;;26.00;99.90;;;;;;5020426;28;20200;-67
2023/07/10 05:14:27;;;;;;;11.07;7.50;;;25.90;99.90;;;;;;5021490;28;20169;-66
2023/07/10 05:16:53;;;;;;;10.43;7.13;;;25.90;99.90;;;;;;5024353;28;20177;-66
2023/07/10 05:19:18;;;;;;;9.23;7.40;;;25.90;99.90;;;;;;5021036;28;20262;-66
2023/07/10 05:21:44;;;;;;;8.60;7.47;;;25.80;99.90;;;;;;5023334;28;20196;-66
2023/07/10 05:24:10;;;;;;;7.63;6.90;;;25.70;99.90;;;;;;5020947;28;20185;-67
2023/07/10 05:26:35;;;;;;;9.03;8.07;;;25.70;99.90;;;;;;5022850;28;20181;-67
2023/07/10 05:29:01;;;;;;;9.97;8.20;;;25.70;99.90;;;;;;5023661;28;20216;-67
2023/07/10 05:31:27;;;;;;;8.33;6.77;;;25.70;99.90;;;;;;5021188;28;20595;-67
2023/07/10 05:33:52;;;;;;;11.40;7.57;;;25.80;99.90;;;;;;5022424;28;20189;-67
2023/07/10 05:36:19;;;;;;;8.40;7.23;;;25.80;99.90;;;;;;5020234;28;20819;-67
2023/07/10 05:38:48;;;;;;;9.60;7.23;;;25.90;99.90;;;;;;5021060;28;20212;-67
2023/07/10 05:41:20;;;;;;;10.90;8.70;;;25.90;99.90;;;;;;5018614;28;20808;-67
2023/07/10 05:43:46;;;;;;;7.87;7.10;;;25.80;99.90;;;;;;5018990;28;20936;-67
2023/07/10 05:46:12;;;;;;;8.87;8.00;;;26.00;99.90;;;;;;5017268;28;20501;-67
2023/07/10 05:48:38;;;;;;;8.00;6.73;;;26.00;99.90;;;;;;5019717;28;20220;-67
2023/07/10 05:51:04;;;;;;;8.93;6.83;;;26.10;99.90;;;;;;5022594;28;20554;-67
2023/07/10 05:53:33;;;;;;;9.30;7.37;;;26.00;99.90;;;;;;5022048;28;20504;-67
2023/07/10 05:56:00;;;;;;;10.20;7.03;;;26.10;99.90;;;;;;5019947;28;20516;-67
2023/07/10 05:58:28;;;;;;;9.97;7.47;;;26.20;99.90;;;;;;5022194;28;20976;-67
2023/07/10 06:00:56;;;;;;;9.10;7.10;;;26.30;99.90;;;;;;5017197;28;20477;-67
2023/07/10 06:03:22;;;;;;;8.37;7.30;;;26.30;99.90;;;;;;5020069;28;20435;-67
2023/07/10 06:06:04;;;;;;;9.57;6.63;;;26.40;99.90;;;;;;5018169;28;20447;-67
2023/07/10 06:08:31;;;;;;;10.00;6.30;;;26.30;99.90;;;;;;5018039;28;20558;-68
2023/07/10 06:10:57;;;;;;;7.97;7.07;;;26.30;99.90;;;;;;5018064;28;20434;-67
2023/07/10 06:13:23;;;;;;;7.40;6.50;;;26.40;99.90;;;;;;5020323;28;21047;-67
2023/07/10 06:15:52;;;;;;;10.00;7.57;;;26.40;99.90;;;;;;5018456;28;20207;-67
2023/07/10 06:18:19;;;;;;;7.80;7.00;;;26.40;99.90;;;;;;5017713;28;20671;-67
2023/07/10 06:20:51;;;;;;;7.70;6.40;;;26.50;99.90;;;;;;5019025;28;20443;-67
2023/07/10 06:23:16;;;;;;;10.27;7.50;;;26.50;99.90;;;;;;5019966;28;20431;-67
2023/07/10 06:25:43;;;;;;;7.90;7.10;;;26.60;99.90;;;;;;5018781;28;20945;-67
2023/07/10 06:28:09;;;;;;;9.23;6.60;;;26.60;99.90;;;;;;5018413;28;20212;-67
2023/07/10 06:30:39;;;;;;;7.93;6.63;;;26.50;99.90;;;;;;5018656;28;20753;-67
2023/07/10 06:33:04;;;;;;;8.37;7.47;;;26.50;99.90;;;;;;5022420;28;20204;-67
2023/07/10 06:35:30;;;;;;;8.70;7.37;;;26.60;99.90;;;;;;5021859;28;20805;-67
2023/07/10 06:37:55;;;;;;;15.33;6.50;;;26.60;99.90;;;;;;5017655;28;20238;-67
2023/07/10 06:40:21;;;;;;;7.40;6.30;;;26.60;99.90;;;;;;5014840;28;20180;-68
2023/07/10 06:42:46;;;;;;;9.47;7.30;;;26.70;99.90;;;;;;5004772;28;20190;-68
2023/07/10 06:45:12;;;;;;;9.27;6.57;;;26.80;99.90;;;;;;5019035;28;20215;-67
2023/07/10 06:47:45;;;;;;;9.83;6.90;;;26.80;99.90;;;;;;5013239;28;20826;-68
2023/07/10 06:50:14;;;;;;;8.03;6.53;;;26.70;99.90;;;;;;5016611;28;20463;-67
2023/07/10 06:52:42;;;;;;;10.30;6.53;;;26.70;99.90;;;;;;5016286;28;20554;-68
2023/07/10 06:55:10;;;;;;;7.53;6.77;;;26.90;99.90;;;;;;5017953;28;20520;-68
2023/07/10 06:57:36;;;;;;;11.87;7.20;;;26.90;99.90;;;;;;5020318;28;20435;-68
2023/07/10 07:00:03;;;;;;;8.40;7.20;;;27.10;99.90;;;;;;5014969;28;20453;-68
2023/07/10 07:02:29;;;;;;;10.03;7.47;;;27.00;99.90;;;;;;5016968;28;20192;-68
2023/07/10 07:04:55;;;;;;;9.37;7.07;;;27.00;99.90;;;;;;5015000;28;20494;-68
2023/07/10 07:07:20;;;;;;;7.33;6.57;;;27.00;99.90;;;;;;5019696;28;20180;-68
2023/07/10 07:09:46;;;;;;;11.00;7.50;;;27.00;99.90;;;;;;5015163;28;20212;-68
2023/07/10 07:12:12;;;;;;;7.93;7.13;;;27.00;99.90;;;;;;5013672;28;20220;-68
2023/07/10 07:14:37;;;;;;;7.50;6.80;;;27.00;99.90;;;;;;5012918;28;20181;-68
2023/07/10 07:17:04;;;;;;;8.67;7.20;;;27.10;99.90;;;;;;5016238;28;20173;-69
2023/07/10 07:19:30;;;;;;;10.47;8.80;;;27.20;99.90;;;;;;5019995;28;20239;-69
2023/07/10 07:21:58;;;;;;;9.10;6.70;;;27.20;99.90;;;;;;5016929;28;20427;-69
2023/07/10 07:24:24;;;;;;;7.60;6.50;;;27.30;99.90;;;;;;5018737;28;20716;-68
2023/07/10 07:26:50;;;;;;;8.77;7.70;;;27.10;99.90;;;;;;5017094;28;20905;-69
2023/07/10 07:29:15;;;;;;;7.70;7.00;;;27.10;99.90;;;;;;5016228;28;20482;-68
2023/07/10 07:31:41;;;;;;;8.03;7.20;;;27.10;99.90;;;;;;5021955;28;20211;-69
2023/07/10 07:34:06;;;;;;;10.90;6.73;;;27.10;99.90;;;;;;5017103;28;20188;-68
2023/07/10 07:36:34;;;;;;;7.97;7.17;;;27.20;99.90;;;;;;5020544;28;20179;-70
2023/07/10 07:39:04;;;;;;;10.57;7.27;;;27.20;99.90;;;;;;5017005;28;20229;-68
2023/07/10 07:41:31;;;;;;;9.47;8.53;;;27.30;99.90;;;;;;5021433;28;20437;-69
2023/07/10 07:43:58;;;;;;;7.67;6.97;;;27.30;99.90;;;;;;5028006;28;20443;-69
2023/07/10 07:46:24;;;;;;;9.20;6.70;;;27.40;99.90;;;;;;5026146;28;20518;-69
2023/07/10 07:48:50;;;;;;;9.47;7.53;;;27.50;99.90;;;;;;5016481;28;20471;-69
2023/07/10 07:51:16;;;;;;;8.43;6.97;;;27.60;99.90;;;;;;5024702;28;20428;-68
2023/07/10 07:53:42;;;;;;;8.80;6.63;;;27.50;99.90;;;;;;5022229;28;20646;-68
2023/07/10 07:56:08;;;;;;;9.87;8.87;;;27.60;99.90;;;;;;5017710;28;20566;-68
2023/07/10 07:58:34;;;;;;;13.20;8.73;;;27.70;99.90;;;;;;5023435;28;20208;-68
2023/07/10 08:00:59;;;;;;;9.70;7.20;;;27.70;99.90;;;;;;5015308;28;20447;-68
2023/07/10 08:03:26;;;;;;;8.20;7.00;;;27.80;99.90;;;;;;5026206;28;20184;-68
2023/07/10 08:05:52;;;;;;;8.90;6.93;;;27.90;99.90;;;;;;5018600;28;20216;-70
2023/07/10 08:08:18;;;;;;;8.93;7.60;;;27.90;99.90;;;;;;5019160;28;20946;-69
2023/07/10 08:10:47;;;;;;;10.17;7.40;;;27.90;99.90;;;;;;5018454;28;20439;-69
2023/07/10 08:13:14;;;;;;;8.10;6.90;;;27.90;99.90;;;;;;5017086;28;20304;-68
2023/07/10 08:15:40;;;;;;;10.10;7.03;;;28.00;99.90;;;;;;5012892;28;20446;-69
2023/07/10 08:18:05;;;;;;;9.30;6.67;;;27.80;99.90;;;;;;5017984;28;20464;-69
2023/07/10 08:20:32;;;;;;;7.60;6.60;;;27.70;99.90;;;;;;5014709;28;20453;-69
2023/07/10 08:22:58;;;;;;;8.60;7.47;;;27.70;99.90;;;;;;5014292;28;20290;-69
2023/07/10 08:25:24;;;;;;;9.70;7.50;;;27.80;99.90;;;;;;5009544;28;20471;-70
2023/07/10 08:27:50;;;;;;;8.17;7.10;;;27.80;99.90;;;;;;5011319;28;20442;-69
2023/07/10 08:30:16;;;;;;;8.43;7.10;;;27.80;99.90;;;;;;5003801;28;20217;-70
2023/07/10 08:32:42;;;;;;;8.63;7.73;;;27.90;99.90;;;;;;4998205;28;20220;-69
2023/07/10 08:35:07;;;;;;;9.93;7.63;;;27.90;99.90;;;;;;5014379;28;20475;-70
2023/07/10 08:37:36;;;;;;;8.37;7.27;;;28.00;99.90;;;;;;5013234;28;20454;-69
2023/07/10 08:40:02;;;;;;;8.17;7.37;;;28.10;99.90;;;;;;5014283;28;20466;-68
2023/07/10 08:42:30;;;;;;;7.77;7.00;;;28.10;99.90;;;;;;5012729;28;20834;-68
2023/07/10 08:44:56;;;;;;;8.73;7.83;;;28.10;99.90;;;;;;5011179;28;20439;-68
2023/07/10 08:47:30;;;;;;;8.83;7.93;;;28.30;99.90;;;;;;5012443;28;20467;-67
2023/07/10 08:50:03;;;;;;;10.90;8.77;;;28.30;99.90;;;;;;5010442;28;20674;-68
2023/07/10 08:52:54;;;;;;;9.03;8.13;;;28.20;99.90;;;;;;5013692;28;20446;-67
2023/07/10 08:55:29;;;;;;;7.70;6.93;;;28.30;99.90;;;;;;5014702;28;20435;-68
2023/07/10 08:57:59;;;;;;;8.93;8.03;;;28.30;99.90;;;;;;5015357;28;20453;-69
2023/07/10 09:00:27;;;;;;;8.37;7.57;;;28.40;99.90;;;;;;5009392;28;20465;-68
2023/07/10 09:03:12;;;;;;;10.23;7.50;;;28.40;99.90;;;;;;5011702;28;20530;-69
2023/07/10 09:05:40;;;;;;;8.33;7.40;;;28.40;99.90;;;;;;5011577;28;20443;-69
2023/07/10 09:08:10;;;;;;;8.67;7.63;;;28.40;99.90;;;;;;5014124;28;20460;-69
2023/07/10 09:10:40;;;;;;;10.23;8.67;;;28.50;99.90;;;;;;5013263;28;20513;-67
2023/07/10 09:13:16;;;;;;;10.97;7.70;;;28.50;99.90;;;;;;5018782;28;20443;-69
2023/07/10 09:15:53;;;;;;;8.30;7.50;;;28.60;99.90;;;;;;5010215;28;20732;-69
2023/07/10 09:18:34;;;;;;;8.30;7.40;;;28.70;99.90;;;;;;5010369;28;20446;-69
2023/07/10 09:21:06;;;;;;;8.90;7.50;;;28.70;99.90;;;;;;5014191;28;20930;-69
2023/07/10 09:23:34;;;;;;;12.10;7.87;;;28.60;99.90;;;;;;5014824;28;20431;-69
2023/07/10 09:26:09;;;;;;;12.10;7.90;;;28.50;99.90;;;;;;5012732;28;20807;-68
2023/07/10 09:28:40;;;;;;;8.80;6.77;;;28.70;99.90;;;;;;5010148;28;20474;-69
2023/07/10 09:31:08;;;;;;;10.17;7.57;;;28.70;99.90;;;;;;5012574;28;20442;-68
2023/07/10 09:33:42;;;;;;;7.57;6.87;;;28.70;99.90;;;;;;5016638;28;20435;-69
2023/07/10 09:36:20;;;;;;;8.17;7.47;;;28.70;99.90;;;;;;5013338;28;20899;-68
2023/07/10 09:38:47;;;;;;;7.60;6.70;;;28.90;99.90;;;;;;5013765;28;20474;-70
2023/07/10 09:41:24;;;;;;;7.43;6.73;;;28.90;99.90;;;;;;5013744;28;20797;-69
2023/07/10 09:43:54;;;;;;;7.40;6.73;;;29.00;99.90;;;;;;5011745;28;20842;-68
2023/07/10 09:46:31;;;;;;;9.13;6.43;;;29.00;99.90;;;;;;5014199;28;20427;-68
2023/07/10 09:48:59;;;;;;;7.40;6.70;;;29.00;99.90;;;;;;5016160;28;20553;-69
2023/07/10 09:51:26;;;;;;;8.93;8.00;;;28.90;99.90;;;;;;5015904;28;20466;-68
2023/07/10 09:54:02;;;;;;;8.23;7.37;;;28.90;99.90;;;;;;5016210;28;20443;-69
2023/07/10 09:56:32;;;;;;;8.50;7.13;;;28.90;99.90;;;;;;5009835;28;20435;-69
2023/07/10 09:58:57;;;;;;;11.00;7.10;;;29.00;99.90;;;;;;5008520;28;20558;-69
2023/07/10 10:01:28;;;;;;;7.70;6.90;;;29.00;99.90;;;;;;5012891;28;20449;-69
2023/07/10 10:03:55;;;;;;;8.23;7.40;;;29.10;99.90;;;;;;5013544;28;20238;-68
2023/07/10 10:06:24;;;;;;;7.60;6.70;;;29.20;99.90;;;;;;5012268;28;20953;-68
2023/07/10 10:08:51;;;;;;;7.30;6.53;;;29.30;99.90;;;;;;5018053;28;20478;-68
2023/07/10 10:11:17;;;;;;;7.50;6.67;;;29.30;99.90;;;;;;5016177;28;20546;-68
2023/07/10 10:13:58;;;;;;;7.90;7.13;;;29.50;99.90;;;;;;5013272;28;20535;-68
2023/07/10 10:16:48;;;;;;;8.10;6.87;;;29.50;99.90;;;;;;5013359;28;22106;-68
2023/07/10 10:19:37;;;;;;;8.90;6.80;;;29.40;99.90;;;;;;5017290;28;20485;-68
2023/07/10 10:22:11;;;;;;;8.00;6.80;;;29.30;99.90;;;;;;5016219;28;20468;-68
2023/07/10 10:24:36;;;;;;;8.43;7.30;;;29.30;99.90;;;;;;5016240;28;20440;-68
2023/07/10 10:27:31;;;;;;;12.53;6.43;;;29.30;99.90;;;;;;5016373;28;20497;-68
2023/07/10 10:30:33;;;;;;;12.20;7.33;;;29.40;99.90;;;;;;5015602;28;20550;-68
2023/07/10 10:33:15;;;;;;;7.13;6.43;;;29.50;99.90;;;;;;5011570;28;21099;-68
2023/07/10 10:36:00;;;;;;;9.17;7.13;;;29.50;99.90;;;;;;5010343;28;20500;-68
2023/07/10 10:38:35;;;;;;;7.30;6.43;;;29.60;99.90;;;;;;5016927;28;20960;-68
2023/07/10 10:41:18;;;;;;;7.33;6.63;;;29.70;99.90;;;;;;5012174;28;21186;-69
2023/07/10 10:43:53;;;;;;;9.77;6.20;;;29.70;99.90;;;;;;5010458;28;20446;-69
2023/07/10 10:46:26;;;;;;;6.90;6.20;;;29.80;99.90;;;;;;5002634;28;20441;-70
2023/07/10 10:49:06;;;;;;;7.50;6.70;;;29.80;99.90;;;;;;5015052;28;20471;-69
2023/07/10 10:51:51;;;;;;;7.43;5.90;;;29.80;99.90;;;;;;5014963;28;20504;-69
2023/07/10 10:54:25;;;;;;;7.10;6.40;;;29.90;99.90;;;;;;5005384;28;20448;-69
2023/07/10 10:57:23;;;;;;;6.60;6.00;;;29.90;99.90;;;;;;5007927;28;20446;-69
2023/07/10 11:00:06;;;;;;;7.20;6.30;;;29.90;99.90;;;;;;5003325;28;20537;-70
2023/07/10 11:02:53;;;;;;;7.87;6.20;;;29.90;99.90;;;;;;5001925;28;20447;-69
2023/07/10 11:05:43;;;;;;;7.23;6.07;;;29.90;99.90;;;;;;4996865;28;20439;-69
2023/07/10 11:08:17;;;;;;;7.03;6.30;;;29.90;99.90;;;;;;4997849;28;20473;-69
2023/07/10 11:10:46;;;;;;;7.00;6.30;;;30.00;99.90;;;;;;5011352;28;20810;-68
2023/07/10 11:13:23;;;;;;;7.00;6.30;;;30.10;99.90;;;;;;5010822;28;21014;-70
2023/07/10 11:15:49;;;;;;;6.63;5.90;;;30.30;99.90;;;;;;5010902;28;20446;-69
2023/07/10 11:18:15;;;;;;;7.97;5.73;;;30.30;99.90;;;;;;5017307;28;20450;-69
2023/07/10 11:20:42;;;;;;;7.90;7.10;;;30.40;99.90;;;;;;5019742;28;20485;-70
2023/07/10 11:23:28;;;;;;;8.93;6.63;;;30.40;99.90;;;;;;5019175;28;20436;-69
2023/07/10 11:26:09;;;;;;;7.30;6.43;;;30.50;99.90;;;;;;5014564;28;20447;-70
2023/07/10 11:28:35;;;;;;;7.27;6.27;;;30.70;99.90;;;;;;5016215;28;20463;-70
2023/07/10 11:31:37;;;;;;;7.27;6.57;;;30.70;99.80;;;;;;5015241;28;20439;-70
2023/07/10 11:34:06;;;;;;;8.60;6.40;;;30.90;99.60;;;;;;4967764;28;21264;-70
2023/07/10 11:36:38;;;;;;;7.63;6.40;;;30.90;98.80;;;;;;5008950;28;20461;-70
2023/07/10 11:39:09;;;;;;;6.97;6.00;;;31.00;98.90;;;;;;5018192;28;21151;-70
2023/07/10 11:41:43;;;;;;;7.07;6.37;;;31.00;96.90;;;;;;5020003;28;20526;-70
2023/07/10 11:44:33;;;;;;;6.83;6.03;;;31.10;97.20;;;;;;5015328;28;20465;-69
2023/07/10 11:47:04;;;;;;;7.83;5.90;;;31.10;96.90;;;;;;5012692;28;20427;-70
2023/07/10 11:49:45;;;;;;;9.80;6.20;;;31.30;96.90;;;;;;5017349;28;20471;-68
2023/07/10 11:52:10;;;;;;;13.93;5.70;;;31.50;94.80;;;;;;5016011;28;20549;-69
2023/07/10 11:54:45;;;;;;;6.90;5.97;;;31.50;94.20;;;;;;5014649;28;20451;-70
2023/07/10 11:57:12;;;;;;;6.33;5.60;;;31.40;93.10;;;;;;5013671;28;20521;-70
2023/07/10 11:59:45;;;;;;;6.60;6.00;;;31.50;93.00;;;;;;5017669;28;20451;-70
2023/07/10 12:02:44;;;;;;;6.73;5.43;;;31.60;91.40;;;;;;5012653;28;20605;-71
2023/07/10 12:05:24;;;;;;;7.20;6.33;;;31.70;91.70;;;;;;5013842;28;20451;-71
2023/07/10 12:07:55;;;;;;;7.13;6.30;;;31.90;91.50;;;;;;5020030;28;20427;-71
2023/07/10 12:10:21;;;;;;;6.67;6.07;;;32.50;90.40;;;;;;5019596;28;20552;-71
2023/07/10 12:12:48;;;;;;;7.00;6.20;;;33.20;89.50;;;;;;5017959;28;20454;-71
2023/07/10 12:15:14;;;;;;;6.17;5.67;;;33.80;86.20;;;;;;5016436;28;20421;-72
2023/07/10 12:17:40;;;;;;;6.90;6.30;;;34.30;83.70;;;;;;5019321;28;20419;-71
2023/07/10 12:20:30;;;;;;;7.20;5.70;;;34.30;78.90;;;;;;5018320;28;20236;-71
2023/07/10 12:23:03;;;;;;;6.10;5.50;;;34.00;78.20;;;;;;5015656;28;20791;-71
2023/07/10 12:25:28;;;;;;;7.77;5.93;;;34.10;77.10;;;;;;5017313;28;20427;-72
2023/07/10 12:27:54;;;;;;;6.33;5.73;;;34.40;76.70;;;;;;5015704;28;20979;-71
2023/07/10 12:30:21;;;;;;;7.07;6.37;;;34.40;77.80;;;;;;5018379;28;20233;-70
2023/07/10 12:32:49;;;;;;;6.80;6.20;;;34.40;74.30;;;;;;5017396;28;20619;-68
2023/07/10 12:35:21;;;;;;;7.07;6.10;;;34.30;72.60;;;;;;5020074;28;20436;-71
2023/07/10 12:37:48;;;;;;;6.30;5.70;;;34.00;71.10;;;;;;5020647;28;20407;-69
2023/07/10 12:40:16;;;;;;;7.10;6.30;;;33.80;72.10;;;;;;5032855;28;20447;-72
2023/07/10 12:42:46;;;;;;;6.87;6.20;;;34.00;72.50;;;;;;5021098;28;20431;-70
2023/07/10 12:45:32;;;;;;;7.00;5.87;;;34.40;71.30;;;;;;5018448;28;20916;-71
2023/07/10 12:48:15;;;;;;;5.90;5.30;;;34.20;69.80;;;;;;5019684;28;20980;-72
2023/07/10 12:50:52;;;;;;;6.00;5.10;;;34.00;68.10;;;;;;5014986;28;20898;-70
2023/07/10 12:53:21;;;;;;;8.90;6.20;;;33.90;66.90;;;;;;5017536;28;20490;-70
2023/07/10 12:56:13;;;;;;;6.33;5.57;;;33.90;67.40;;;;;;5015787;28;20446;-70
2023/07/10 12:58:38;;;;;;;6.10;5.13;;;33.90;64.40;;;;;;5015213;28;20992;-70